createdAt,value
2019-03-01T00:01:03.693Z,9.46
2019-03-01T00:04:37.946Z,9.39
2019-03-01T00:08:14.251Z,9.43
2019-03-01T00:15:50.348Z,9.30
2019-03-01T00:19:14.050Z,9.24
2019-03-01T00:23:16.598Z,9.22
2019-03-01T00:27:01.700Z,9.30
2019-03-01T00:30:28.865Z,9.28
2019-03-01T00:33:57.724Z,9.13
2019-03-01T00:38:02.715Z,9.14
2019-03-01T00:41:25.715Z,9.17
2019-03-01T00:44:41.174Z,9.20
2019-03-01T00:47:55.043Z,9.17
2019-03-01T00:51:08.830Z,9.23
2019-03-01T00:54:22.316Z,9.26
2019-03-01T00:57:35.911Z,9.13
2019-03-01T01:00:49.590Z,9.22
2019-03-01T01:04:03.288Z,9.19
2019-03-01T01:07:17.074Z,9.24
2019-03-01T01:10:30.647Z,9.11
2019-03-01T01:13:44.143Z,8.98
2019-03-01T01:16:58.090Z,9.16
2019-03-01T01:20:11.857Z,9.14
2019-03-01T01:23:25.352Z,9.09
2019-03-01T01:26:39.188Z,9.11
2019-03-01T01:29:52.680Z,9.01
2019-03-01T01:33:06.423Z,9.13
2019-03-01T01:36:20.492Z,9.25
2019-03-01T01:39:33.979Z,9.26
2019-03-01T01:42:47.487Z,9.32
2019-03-01T01:46:00.957Z,9.31
2019-03-01T01:49:14.746Z,9.22
2019-03-01T01:52:28.332Z,9.24
2019-03-01T01:55:41.837Z,9.25
2019-03-01T01:58:55.559Z,9.29
2019-03-01T02:02:09.481Z,9.27
2019-03-01T02:05:23.597Z,9.31
2019-03-01T02:08:37.659Z,9.40
2019-03-01T02:11:51.435Z,9.33
2019-03-01T02:15:06.873Z,9.29
2019-03-01T02:18:20.460Z,9.22
2019-03-01T02:21:36.161Z,9.20
2019-03-01T02:24:49.936Z,9.27
2019-03-01T02:28:03.620Z,9.14
2019-03-01T02:31:17.696Z,9.11
2019-03-01T02:34:31.187Z,9.18
2019-03-01T02:37:45.070Z,9.34
2019-03-01T02:40:58.571Z,9.31
2019-03-01T02:44:12.324Z,9.37
2019-03-01T02:47:25.904Z,9.38
2019-03-01T02:50:39.503Z,9.32
2019-03-01T02:53:53.002Z,9.32
2019-03-01T02:57:06.581Z,9.22
2019-03-01T03:00:22.374Z,9.21
2019-03-01T03:03:36.207Z,9.22
2019-03-01T03:06:58.040Z,9.06
2019-03-01T03:10:12.547Z,9.14
2019-03-01T03:13:26.026Z,9.17
2019-03-01T03:16:39.805Z,9.16
2019-03-01T03:19:53.288Z,9.15
2019-03-01T03:23:06.776Z,9.12
2019-03-01T03:26:20.266Z,9.10
2019-03-01T03:29:33.872Z,8.97
2019-03-01T03:32:47.657Z,9.07
2019-03-01T03:36:01.124Z,9.04
2019-03-01T03:39:14.608Z,9.10
2019-03-01T03:42:28.113Z,9.03
2019-03-01T03:45:41.886Z,9.08
2019-03-01T03:48:55.369Z,9.01
2019-03-01T03:52:09.124Z,9.14
2019-03-01T03:55:22.814Z,9.10
2019-03-01T03:58:36.501Z,9.02
2019-03-01T04:01:50.099Z,9.00
2019-03-01T04:05:04.544Z,8.90
2019-03-01T04:08:18.233Z,8.93
2019-03-01T04:11:31.833Z,8.94
2019-03-01T04:14:45.560Z,8.87
2019-03-01T04:17:59.459Z,8.60
2019-03-01T04:21:12.935Z,8.72
2019-03-01T04:24:26.418Z,8.69
2019-03-01T04:27:40.047Z,8.72
2019-03-01T04:30:53.624Z,8.68
2019-03-01T04:34:07.116Z,8.65
2019-03-01T04:37:20.978Z,8.72
2019-03-01T04:40:34.463Z,8.77
2019-03-01T04:43:47.965Z,8.74
2019-03-01T04:47:01.453Z,8.72
2019-03-01T04:50:15.047Z,8.79
2019-03-01T04:53:28.538Z,8.79
2019-03-01T04:56:42.029Z,8.72
2019-03-01T04:59:55.733Z,8.74
2019-03-01T05:03:09.497Z,8.85
2019-03-01T05:06:22.990Z,8.91
2019-03-01T05:09:36.499Z,8.80
2019-03-01T05:12:50.288Z,8.73
2019-03-01T05:16:03.969Z,8.82
2019-03-01T05:19:17.473Z,8.80
2019-03-01T05:22:31.283Z,8.86
2019-03-01T05:25:44.767Z,8.88
2019-03-01T05:28:58.530Z,8.93
2019-03-01T05:32:12.019Z,9.00
2019-03-01T05:35:25.522Z,9.06
2019-03-01T05:38:39.259Z,9.02
2019-03-01T05:41:52.736Z,8.97
2019-03-01T05:45:12.108Z,8.94
2019-03-01T05:48:25.708Z,8.90
2019-03-01T05:51:39.308Z,8.98
2019-03-01T05:54:52.787Z,9.00
2019-03-01T05:58:27.377Z,8.81
2019-03-01T06:01:46.224Z,8.75
2019-03-01T06:05:03.726Z,8.83
2019-03-01T06:08:37.274Z,8.89
2019-03-01T06:12:17.442Z,8.90
2019-03-01T06:15:55.143Z,8.78
2019-03-01T06:19:55.819Z,8.87
2019-03-01T06:23:31.750Z,8.65
2019-03-01T06:27:35.543Z,8.69
2019-03-01T06:31:30.461Z,8.70
2019-03-01T06:35:44.312Z,8.55
2019-03-01T06:39:38.155Z,8.56
2019-03-01T06:43:02.580Z,8.50
2019-03-01T06:46:42.331Z,8.53
2019-03-01T06:50:14.713Z,8.46
2019-03-01T06:53:28.215Z,8.50
2019-03-01T06:56:41.729Z,8.52
2019-03-01T06:59:55.303Z,8.55
2019-03-01T07:03:08.998Z,8.58
2019-03-01T07:06:22.503Z,8.59
2019-03-01T07:09:36.184Z,8.51
2019-03-01T07:12:49.984Z,8.63
2019-03-01T07:16:03.587Z,8.70
2019-03-01T07:19:17.071Z,8.79
2019-03-01T07:22:30.575Z,8.77
2019-03-01T07:25:44.186Z,8.73
2019-03-01T07:28:57.672Z,8.92
2019-03-01T07:32:11.163Z,8.94
2019-03-01T07:35:25.061Z,8.91
2019-03-01T07:38:38.792Z,8.90
2019-03-01T07:41:52.298Z,8.93
2019-03-01T07:45:07.366Z,8.98
2019-03-01T07:48:20.868Z,9.10
2019-03-01T07:51:35.988Z,9.23
2019-03-01T07:54:52.766Z,9.27
2019-03-01T07:58:05.468Z,9.33
2019-03-01T08:01:19.157Z,9.12
2019-03-01T08:04:32.640Z,9.16
2019-03-01T08:07:55.624Z,9.08
2019-03-01T08:11:01.845Z,9.16
2019-03-01T08:14:15.698Z,9.31
2019-03-01T08:17:31.626Z,9.25
2019-03-01T08:20:45.168Z,9.17
2019-03-01T08:23:58.687Z,9.25
2019-03-01T08:27:12.338Z,9.22
2019-03-01T08:30:26.248Z,9.25
2019-03-01T08:33:43.455Z,9.38
2019-03-01T08:36:55.148Z,9.57
2019-03-01T08:40:14.705Z,9.68
2019-03-01T08:43:29.059Z,9.80
2019-03-01T08:46:45.430Z,9.80
2019-03-01T08:49:57.982Z,9.71
2019-03-01T08:53:15.046Z,9.80
2019-03-01T08:56:27.136Z,9.92
2019-03-01T08:59:40.610Z,9.96
2019-03-01T09:02:56.320Z,9.99
2019-03-01T09:06:10.000Z,10.01
2019-03-01T09:09:23.485Z,10.01
2019-03-01T09:12:37.209Z,10.16
2019-03-01T09:15:50.826Z,10.28
2019-03-01T09:19:04.595Z,10.59
2019-03-01T09:22:18.072Z,10.92
2019-03-01T09:25:31.559Z,11.21
2019-03-01T09:28:45.359Z,11.43
2019-03-01T09:31:58.983Z,11.50
2019-03-01T09:35:26.444Z,11.52
2019-03-01T09:38:42.878Z,11.62
2019-03-01T09:42:02.852Z,11.79
2019-03-01T09:45:13.671Z,11.77
2019-03-01T09:48:27.409Z,11.67
2019-03-01T09:51:43.784Z,11.30
2019-03-01T09:54:56.366Z,11.13
2019-03-01T09:58:09.853Z,10.94
2019-03-01T10:01:23.485Z,10.87
2019-03-01T10:04:37.531Z,11.08
2019-03-01T10:07:51.232Z,11.21
2019-03-01T10:11:04.944Z,11.02
2019-03-01T10:14:20.274Z,10.88
2019-03-01T10:17:34.212Z,11.08
2019-03-01T10:20:48.668Z,11.24
2019-03-01T10:24:02.538Z,11.33
2019-03-01T10:27:16.030Z,11.33
2019-03-01T10:30:29.620Z,11.53
2019-03-01T10:33:43.192Z,11.62
2019-03-01T10:36:56.929Z,11.94
2019-03-01T10:40:12.495Z,12.25
2019-03-01T10:43:25.966Z,12.17
2019-03-01T10:46:39.471Z,12.07
2019-03-01T10:49:53.274Z,11.66
2019-03-01T10:53:07.153Z,11.53
2019-03-01T10:56:20.791Z,11.35
2019-03-01T10:59:34.507Z,11.07
2019-03-01T11:02:48.144Z,11.03
2019-03-01T11:06:02.031Z,11.24
2019-03-01T11:09:15.599Z,11.29
2019-03-01T11:12:29.182Z,11.16
2019-03-01T11:15:42.757Z,11.32
2019-03-01T11:18:56.228Z,11.45
2019-03-01T11:22:10.125Z,11.41
2019-03-01T11:25:23.921Z,11.52
2019-03-01T11:28:37.415Z,11.80
2019-03-01T11:31:51.007Z,11.85
2019-03-01T11:35:05.091Z,11.74
2019-03-01T11:38:18.587Z,11.82
2019-03-01T11:41:32.555Z,11.98
2019-03-01T11:44:46.026Z,12.04
2019-03-01T11:47:59.627Z,12.15
2019-03-01T11:51:13.355Z,12.12
2019-03-01T11:54:26.840Z,12.11
2019-03-01T11:57:40.330Z,12.18
2019-03-01T12:00:54.376Z,12.20
2019-03-01T12:04:07.878Z,12.27
2019-03-01T12:07:21.620Z,12.29
2019-03-01T12:10:35.216Z,12.59
2019-03-01T12:13:48.698Z,12.52
2019-03-01T12:17:02.925Z,12.24
2019-03-01T12:20:17.974Z,12.03
2019-03-01T12:23:31.572Z,11.88
2019-03-01T12:26:45.164Z,11.74
2019-03-01T12:29:58.986Z,11.51
2019-03-01T12:33:12.728Z,11.27
2019-03-01T12:36:26.463Z,11.15
2019-03-01T12:39:40.236Z,11.06
2019-03-01T12:42:54.172Z,10.92
2019-03-01T12:46:07.847Z,11.31
2019-03-01T12:49:22.337Z,12.15
2019-03-01T12:52:36.378Z,12.74
2019-03-01T12:55:49.858Z,12.62
2019-03-01T12:59:03.802Z,12.12
2019-03-01T13:02:20.318Z,11.79
2019-03-01T13:05:33.861Z,11.65
2019-03-01T13:08:51.116Z,11.52
2019-03-01T13:12:03.004Z,11.56
2019-03-01T13:15:16.688Z,11.27
2019-03-01T13:18:30.213Z,11.27
2019-03-01T13:21:45.512Z,11.44
2019-03-01T13:24:59.390Z,11.67
2019-03-01T13:28:13.503Z,11.89
2019-03-01T13:31:27.180Z,11.86
2019-03-01T13:34:40.799Z,11.55
2019-03-01T13:37:55.476Z,11.62
2019-03-01T13:41:09.784Z,11.69
2019-03-01T13:44:23.262Z,11.30
2019-03-01T13:47:37.011Z,11.08
2019-03-01T13:50:50.676Z,10.93
2019-03-01T13:54:05.783Z,10.93
2019-03-01T13:57:19.948Z,10.70
2019-03-01T14:00:33.943Z,10.46
2019-03-01T14:03:47.431Z,10.40
2019-03-01T14:07:01.150Z,10.36
2019-03-01T14:10:16.690Z,10.24
2019-03-01T14:13:30.448Z,10.13
2019-03-01T14:16:43.944Z,10.11
2019-03-01T14:19:57.412Z,10.18
2019-03-01T14:23:10.886Z,10.28
2019-03-01T14:26:24.373Z,10.27
2019-03-01T14:29:37.827Z,10.21
2019-03-01T14:32:56.920Z,10.26
2019-03-01T14:36:07.006Z,10.43
2019-03-01T14:39:20.490Z,10.49
2019-03-01T14:42:33.987Z,10.51
2019-03-01T14:45:48.138Z,10.28
2019-03-01T14:49:01.808Z,10.29
2019-03-01T14:52:18.252Z,10.36
2019-03-01T14:55:33.888Z,10.31
2019-03-01T14:59:02.352Z,10.38
2019-03-01T15:02:56.204Z,10.42
2019-03-01T15:06:09.888Z,10.41
2019-03-01T15:09:23.359Z,10.40
2019-03-01T15:12:37.103Z,10.41
2019-03-01T15:15:50.809Z,10.42
2019-03-01T15:19:04.675Z,10.32
2019-03-01T15:22:19.711Z,10.37
2019-03-01T15:25:33.403Z,10.44
2019-03-01T15:28:55.296Z,10.34
2019-03-01T15:32:07.136Z,10.15
2019-03-01T15:35:20.647Z,10.05
2019-03-01T15:38:34.331Z,9.93
2019-03-01T15:41:48.210Z,9.75
2019-03-01T15:45:05.001Z,9.78
2019-03-01T15:48:17.346Z,9.92
2019-03-01T15:51:31.110Z,10.10
2019-03-01T15:54:47.773Z,10.15
2019-03-01T15:58:01.849Z,10.23
2019-03-01T16:01:15.693Z,10.19
2019-03-01T16:04:30.408Z,10.21
2019-03-01T16:07:44.657Z,10.27
2019-03-01T16:10:58.159Z,10.21
2019-03-01T16:14:11.645Z,10.12
2019-03-01T16:17:25.445Z,9.98
2019-03-01T16:20:39.251Z,9.90
2019-03-01T16:23:52.747Z,9.79
2019-03-01T16:27:08.629Z,9.82
2019-03-01T16:30:21.938Z,9.90
2019-03-01T16:33:35.673Z,10.00
2019-03-01T16:36:52.111Z,9.87
2019-03-01T16:40:08.391Z,9.77
2019-03-01T16:43:22.258Z,9.66
2019-03-01T16:46:36.103Z,9.72
2019-03-01T16:49:49.595Z,9.67
2019-03-01T16:53:04.607Z,9.64
2019-03-01T16:56:19.331Z,9.71
2019-03-01T16:59:32.937Z,9.74
2019-03-01T17:02:46.672Z,9.67
2019-03-01T17:06:00.647Z,9.64
2019-03-01T17:09:15.536Z,9.56
2019-03-01T17:12:30.408Z,9.45
2019-03-01T17:15:45.550Z,9.40
2019-03-01T17:18:59.612Z,9.36
2019-03-01T17:22:13.355Z,9.33
2019-03-01T17:25:27.724Z,9.29
2019-03-01T17:28:41.363Z,9.33
2019-03-01T17:31:54.958Z,9.19
2019-03-01T17:35:08.788Z,9.18
2019-03-01T17:38:22.279Z,9.08
2019-03-01T17:41:36.332Z,9.11
2019-03-01T17:44:50.155Z,9.15
2019-03-01T17:48:03.852Z,9.16
2019-03-01T17:51:18.199Z,9.12
2019-03-01T17:54:33.054Z,9.05
2019-03-01T17:57:46.817Z,9.02
2019-03-01T18:01:02.694Z,8.95
2019-03-01T18:04:16.024Z,9.01
2019-03-01T18:07:29.695Z,9.11
2019-03-01T18:10:43.447Z,9.17
2019-03-01T18:14:00.612Z,9.17
2019-03-01T18:17:12.705Z,9.14
2019-03-01T18:20:26.629Z,9.04
2019-03-01T18:23:40.894Z,9.01
2019-03-01T18:26:54.390Z,9.10
2019-03-01T18:30:16.114Z,8.84
2019-03-01T18:33:29.384Z,8.83
2019-03-01T18:36:43.042Z,8.80
2019-03-01T18:39:57.372Z,8.67
2019-03-01T18:43:13.083Z,8.62
2019-03-01T18:46:26.453Z,8.66
2019-03-01T18:49:39.958Z,8.56
2019-03-01T18:52:54.230Z,8.51
2019-03-01T18:56:07.975Z,8.51
2019-03-01T18:59:24.601Z,8.59
2019-03-01T19:02:37.619Z,8.68
2019-03-01T19:05:51.245Z,8.74
2019-03-01T19:09:06.451Z,8.74
2019-03-01T19:12:20.415Z,8.80
2019-03-01T19:15:35.199Z,8.80
2019-03-01T19:18:51.226Z,8.85
2019-03-01T19:22:04.357Z,8.83
2019-03-01T19:25:18.235Z,8.83
2019-03-01T19:28:31.971Z,8.77
2019-03-01T19:31:45.460Z,8.74
2019-03-01T19:34:59.300Z,8.73
2019-03-01T19:38:13.133Z,8.74
2019-03-01T19:41:26.900Z,8.75
2019-03-01T19:44:40.410Z,8.72
2019-03-01T19:47:54.284Z,8.71
2019-03-01T19:51:08.059Z,8.72
2019-03-01T19:54:21.559Z,8.73
2019-03-01T19:57:36.360Z,8.69
2019-03-01T20:00:50.620Z,8.82
2019-03-01T20:04:04.281Z,8.85
2019-03-01T20:07:19.788Z,8.85
2019-03-01T20:10:33.790Z,8.85
2019-03-01T20:13:50.559Z,8.80
2019-03-01T20:17:03.256Z,8.89
2019-03-01T20:20:17.707Z,8.91
2019-03-01T20:23:33.964Z,8.93
2019-03-01T20:26:47.569Z,8.97
2019-03-01T20:30:01.371Z,8.99
2019-03-01T20:33:14.979Z,8.95
2019-03-01T20:36:28.459Z,8.66
2019-03-01T20:39:42.241Z,8.33
2019-03-01T20:42:59.844Z,8.09
2019-03-01T20:46:11.331Z,7.87
2019-03-01T20:49:25.187Z,7.69
2019-03-01T20:52:39.106Z,7.58
2019-03-01T20:55:52.930Z,7.58
2019-03-01T20:59:06.695Z,7.61
2019-03-01T21:02:20.383Z,7.66
2019-03-01T21:05:33.991Z,7.51
2019-03-01T21:08:47.491Z,7.36
2019-03-01T21:12:01.241Z,7.31
2019-03-01T21:15:15.714Z,7.41
2019-03-01T21:18:30.795Z,7.40
2019-03-01T21:21:44.912Z,7.32
2019-03-01T21:24:59.422Z,7.40
2019-03-01T21:28:13.821Z,7.57
2019-03-01T21:31:27.299Z,7.47
2019-03-01T21:34:40.796Z,7.49
2019-03-01T21:37:54.637Z,7.45
2019-03-01T21:41:09.809Z,7.57
2019-03-01T21:44:23.541Z,7.68
2019-03-01T21:47:37.020Z,7.74
2019-03-01T21:50:51.257Z,7.56
2019-03-01T21:54:05.327Z,7.53
2019-03-01T21:57:18.818Z,7.58
2019-03-01T22:00:34.742Z,7.58
2019-03-01T22:03:47.999Z,7.62
2019-03-01T22:07:02.757Z,7.66
2019-03-01T22:10:16.883Z,7.67
2019-03-01T22:13:32.553Z,7.71
2019-03-01T22:16:45.757Z,7.72
2019-03-01T22:19:59.362Z,7.74
2019-03-01T22:23:15.689Z,7.77
2019-03-01T22:26:29.064Z,7.74
2019-03-01T22:29:43.549Z,7.71
2019-03-01T22:32:58.291Z,7.63
2019-03-01T22:36:11.758Z,7.59
2019-03-01T22:39:25.522Z,7.57
2019-03-01T22:42:39.214Z,7.58
2019-03-01T22:45:52.713Z,7.52
2019-03-01T22:49:06.195Z,7.38
2019-03-01T22:52:19.691Z,7.34
2019-03-01T22:55:33.496Z,7.27
2019-03-01T22:58:47.062Z,7.19
2019-03-01T23:02:04.423Z,7.17
2019-03-01T23:05:19.361Z,7.17
2019-03-01T23:08:35.570Z,7.00
2019-03-01T23:11:48.498Z,7.01
2019-03-01T23:15:02.795Z,7.05
2019-03-01T23:18:17.839Z,7.02
2019-03-01T23:21:32.610Z,7.12
2019-03-01T23:24:47.079Z,7.15
2019-03-01T23:28:04.029Z,7.18
2019-03-01T23:31:16.514Z,7.21
2019-03-01T23:34:30.000Z,7.12
2019-03-01T23:37:43.499Z,7.18
2019-03-01T23:40:57.082Z,7.16
2019-03-01T23:44:10.580Z,7.16
2019-03-01T23:47:24.370Z,7.14
2019-03-01T23:50:37.847Z,7.13
2019-03-01T23:53:51.343Z,7.08
2019-03-01T23:57:05.610Z,7.00
